createdAt,value
2019-02-28T00:02:13.643Z,14.97
2019-02-28T00:04:43.437Z,13.43
2019-02-28T00:07:17.581Z,13.10
2019-02-28T00:09:44.736Z,13.37
2019-02-28T00:12:14.927Z,13.80
2019-02-28T00:14:45.614Z,12.17
2019-02-28T00:17:16.491Z,12.23
2019-02-28T00:19:46.258Z,12.63
2019-02-28T00:22:16.059Z,12.63
2019-02-28T00:24:45.847Z,12.33
2019-02-28T00:27:20.977Z,11.07
2019-02-28T00:29:47.131Z,13.33
2019-02-28T00:32:16.938Z,13.17
2019-02-28T00:34:46.723Z,12.30
2019-02-28T00:37:16.519Z,11.93
2019-02-28T00:39:46.309Z,13.47
2019-02-28T00:42:17.649Z,13.63
2019-02-28T00:44:47.607Z,13.10
2019-02-28T00:47:17.407Z,13.53
2019-02-28T00:49:47.191Z,12.53
2019-02-28T00:52:17.035Z,13.40
2019-02-28T00:54:46.913Z,12.40
2019-02-28T00:57:16.720Z,13.40
2019-02-28T00:59:46.507Z,14.03
2019-02-28T01:02:17.573Z,13.83
2019-02-28T01:04:47.811Z,13.27
2019-02-28T01:07:17.599Z,12.80
2019-02-28T01:09:47.395Z,14.83
2019-02-28T01:12:19.401Z,14.10
2019-02-28T01:14:48.681Z,14.33
2019-02-28T01:17:18.483Z,14.67
2019-02-28T01:19:48.272Z,15.00
2019-02-28T01:22:18.055Z,14.07
2019-02-28T01:24:47.853Z,14.50
2019-02-28T01:27:20.888Z,14.97
2019-02-28T01:29:49.123Z,14.70
2019-02-28T01:32:18.907Z,14.70
2019-02-28T01:34:48.696Z,14.67
2019-02-28T01:37:20.819Z,14.57
2019-02-28T01:39:49.976Z,15.37
2019-02-28T01:42:19.942Z,14.07
2019-02-28T01:44:51.810Z,14.90
2019-02-28T01:47:21.679Z,15.07
2019-02-28T01:49:51.471Z,14.60
2019-02-28T01:52:21.260Z,16.57
2019-02-28T01:54:51.047Z,16.47
2019-02-28T01:57:20.849Z,15.17
2019-02-28T01:59:52.926Z,16.00
2019-02-28T02:02:22.118Z,16.70
2019-02-28T02:04:51.900Z,15.60
2019-02-28T02:07:21.707Z,16.63
2019-02-28T02:09:51.492Z,15.90
2019-02-28T02:12:21.304Z,16.03
2019-02-28T02:14:51.070Z,17.27
2019-02-28T02:17:20.862Z,16.47
2019-02-28T02:19:52.197Z,17.03
2019-02-28T02:22:22.134Z,15.60
2019-02-28T02:24:51.914Z,16.20
2019-02-28T02:27:21.726Z,17.53
2019-02-28T02:29:51.525Z,16.63
2019-02-28T02:32:21.306Z,17.77
2019-02-28T02:34:51.081Z,16.40
2019-02-28T02:37:20.882Z,14.97
2019-02-28T02:39:51.340Z,16.33
2019-02-28T02:42:21.226Z,16.87
2019-02-28T02:44:51.009Z,16.57
2019-02-28T02:47:20.807Z,18.17
2019-02-28T02:49:55.974Z,17.13
2019-02-28T02:52:25.855Z,16.70
2019-02-28T02:54:53.563Z,18.57
2019-02-28T02:57:23.367Z,16.70
2019-02-28T02:59:53.142Z,16.67
2019-02-28T03:02:22.922Z,17.33
2019-02-28T03:04:57.944Z,16.77
2019-02-28T03:07:25.013Z,17.40
2019-02-28T03:09:54.858Z,17.13
2019-02-28T03:12:24.664Z,17.33
2019-02-28T03:14:54.448Z,19.37
2019-02-28T03:17:24.252Z,18.50
2019-02-28T03:19:54.043Z,16.63
2019-02-28T03:22:28.376Z,17.80
2019-02-28T03:24:55.387Z,19.00
2019-02-28T03:27:25.180Z,18.83
2019-02-28T03:29:54.955Z,19.53
2019-02-28T03:32:24.761Z,19.20
2019-02-28T03:34:58.722Z,17.07
2019-02-28T03:37:32.809Z,19.33
2019-02-28T03:40:04.188Z,18.97
2019-02-28T03:42:30.254Z,18.03
2019-02-28T03:45:00.031Z,19.50
2019-02-28T03:47:29.838Z,18.80
2019-02-28T03:49:59.612Z,17.63
2019-02-28T03:52:29.467Z,17.27
2019-02-28T03:55:03.401Z,18.43
2019-02-28T03:57:30.758Z,17.47
2019-02-28T04:00:00.626Z,18.03
2019-02-28T04:02:30.404Z,19.17
2019-02-28T04:05:00.253Z,18.53
2019-02-28T04:07:30.064Z,18.13
2019-02-28T04:09:59.846Z,18.70
2019-02-28T04:12:29.627Z,20.03
2019-02-28T04:14:59.422Z,19.73
2019-02-28T04:17:30.401Z,18.50
2019-02-28T04:20:00.966Z,18.37
2019-02-28T04:22:30.811Z,18.77
2019-02-28T04:25:00.613Z,19.07
2019-02-28T04:27:30.381Z,21.00
2019-02-28T04:30:05.871Z,20.53
2019-02-28T04:32:31.659Z,19.27
2019-02-28T04:35:01.462Z,19.87
2019-02-28T04:37:31.308Z,20.23
2019-02-28T04:40:01.107Z,18.13
2019-02-28T04:42:30.890Z,20.43
2019-02-28T04:45:00.694Z,20.33
2019-02-28T04:47:30.546Z,21.33
2019-02-28T04:50:00.339Z,20.47
2019-02-28T04:52:30.136Z,21.93
2019-02-28T04:55:02.817Z,22.07
2019-02-28T04:57:31.410Z,21.17
2019-02-28T05:00:01.194Z,22.83
2019-02-28T05:02:32.588Z,21.50
2019-02-28T05:05:02.366Z,21.33
2019-02-28T05:07:32.228Z,21.33
2019-02-28T05:10:02.015Z,20.50
2019-02-28T05:12:32.874Z,22.57
2019-02-28T05:15:02.825Z,22.00
2019-02-28T05:17:32.696Z,22.37
2019-02-28T05:20:02.484Z,21.83
2019-02-28T05:22:32.275Z,21.90
2019-02-28T05:25:02.070Z,23.73
2019-02-28T05:27:35.550Z,21.87
2019-02-28T05:30:03.338Z,23.37
2019-02-28T05:32:35.650Z,21.60
2019-02-28T05:35:05.263Z,24.23
2019-02-28T05:37:35.141Z,22.80
2019-02-28T05:40:08.127Z,22.87
2019-02-28T05:42:37.943Z,22.57
2019-02-28T05:45:11.432Z,22.07
2019-02-28T05:47:46.366Z,24.23
2019-02-28T05:50:16.726Z,24.77
2019-02-28T05:52:45.347Z,23.73
2019-02-28T05:55:15.204Z,24.97
2019-02-28T05:57:45.063Z,25.03
2019-02-28T06:00:17.378Z,25.93
2019-02-28T06:02:47.229Z,25.67
2019-02-28T06:05:17.008Z,24.70
2019-02-28T06:07:46.799Z,25.90
2019-02-28T06:10:16.661Z,25.70
2019-02-28T06:12:46.435Z,25.63
2019-02-28T06:15:16.863Z,27.53
2019-02-28T06:17:46.664Z,25.30
2019-02-28T06:20:17.952Z,27.40
2019-02-28T06:22:47.907Z,27.73
2019-02-28T06:25:23.652Z,27.33
2019-02-28T06:27:50.697Z,26.87
2019-02-28T06:30:20.645Z,27.53
2019-02-28T06:32:50.427Z,27.83
2019-02-28T06:35:20.553Z,26.90
2019-02-28T06:37:50.496Z,24.80
2019-02-28T06:40:20.299Z,25.70
2019-02-28T06:42:50.091Z,25.20
2019-02-28T06:45:20.461Z,24.03
2019-02-28T06:47:50.286Z,23.57
2019-02-28T06:50:21.196Z,21.73
2019-02-28T06:52:50.965Z,19.50
2019-02-28T06:55:26.900Z,17.60
2019-02-28T06:57:58.981Z,18.37
2019-02-28T07:00:28.180Z,17.30
2019-02-28T07:02:57.964Z,18.63
2019-02-28T07:05:27.772Z,18.47
2019-02-28T07:07:57.556Z,18.10
2019-02-28T07:10:27.351Z,18.60
2019-02-28T07:12:57.165Z,19.17
2019-02-28T07:15:27.017Z,20.63
2019-02-28T07:17:56.806Z,19.23
2019-02-28T07:20:26.603Z,20.90
2019-02-28T07:22:56.399Z,19.60
2019-02-28T07:25:26.187Z,19.60
2019-02-28T07:28:03.919Z,19.03
2019-02-28T07:30:33.703Z,17.90
2019-02-28T07:33:09.493Z,20.07
2019-02-28T07:35:36.823Z,19.73
2019-02-28T07:38:06.467Z,21.70
2019-02-28T07:40:37.113Z,22.03
2019-02-28T07:43:12.060Z,21.70
2019-02-28T07:45:38.451Z,21.43
2019-02-28T07:48:08.249Z,22.10
2019-02-28T07:50:38.031Z,23.40
2019-02-28T07:53:08.731Z,23.23
2019-02-28T07:55:39.300Z,22.70
2019-02-28T07:58:09.173Z,21.77
2019-02-28T08:00:58.291Z,22.40
2019-02-28T08:03:28.094Z,22.03
2019-02-28T08:05:57.881Z,22.93
2019-02-28T08:08:27.677Z,23.47
2019-02-28T08:10:57.470Z,21.77
2019-02-28T08:13:27.339Z,23.73
2019-02-28T08:16:00.182Z,22.40
2019-02-28T08:18:28.738Z,21.13
2019-02-28T08:20:58.525Z,20.43
2019-02-28T08:23:30.232Z,19.73
2019-02-28T08:26:01.171Z,19.70
2019-02-28T08:28:35.843Z,20.33
2019-02-28T08:31:03.447Z,18.70
2019-02-28T08:33:33.251Z,19.70
2019-02-28T08:36:03.057Z,21.33
2019-02-28T08:38:34.336Z,20.80
2019-02-28T08:41:06.399Z,19.57
2019-02-28T08:43:35.703Z,20.10
2019-02-28T08:46:09.700Z,21.00
2019-02-28T08:48:37.077Z,19.40
2019-02-28T08:51:06.887Z,21.50
2019-02-28T08:53:36.675Z,20.67
2019-02-28T08:56:06.481Z,21.47
2019-02-28T08:58:37.610Z,18.43
2019-02-28T09:01:07.811Z,20.57
2019-02-28T09:03:40.558Z,20.40
2019-02-28T09:06:10.181Z,21.67
2019-02-28T09:08:39.965Z,21.67
2019-02-28T09:11:09.775Z,22.40
2019-02-28T09:13:39.946Z,21.27
2019-02-28T09:16:11.055Z,21.33
2019-02-28T09:18:40.846Z,20.70
2019-02-28T09:21:10.645Z,22.03
2019-02-28T09:23:40.439Z,22.83
2019-02-28T09:26:10.251Z,22.87
2019-02-28T09:28:40.111Z,22.10
2019-02-28T09:31:09.987Z,23.33
2019-02-28T09:33:39.838Z,24.83
2019-02-28T09:36:09.646Z,23.00
2019-02-28T09:38:42.290Z,22.47
2019-02-28T09:41:10.963Z,25.03
2019-02-28T09:43:40.757Z,25.10
2019-02-28T09:46:12.422Z,24.50
2019-02-28T09:48:42.070Z,24.80
2019-02-28T09:51:11.858Z,24.37
2019-02-28T09:53:41.654Z,24.50
2019-02-28T09:56:11.442Z,25.33
2019-02-28T09:58:41.243Z,25.97
2019-02-28T10:01:11.095Z,25.87
2019-02-28T10:03:40.899Z,26.00
2019-02-28T10:06:13.447Z,27.37
2019-02-28T10:08:42.191Z,26.13
2019-02-28T10:11:11.985Z,28.80
2019-02-28T10:13:41.792Z,27.03
2019-02-28T10:16:13.677Z,28.77
2019-02-28T10:18:43.078Z,28.87
2019-02-28T10:21:12.868Z,28.80
2019-02-28T10:23:42.910Z,29.57
2019-02-28T10:26:14.356Z,29.67
2019-02-28T10:28:44.232Z,29.53
2019-02-28T10:31:14.036Z,29.67
2019-02-28T10:33:43.904Z,28.70
2019-02-28T10:36:13.847Z,28.93
2019-02-28T10:38:43.681Z,29.17
2019-02-28T10:41:15.382Z,29.13
2019-02-28T10:43:49.880Z,29.30
2019-02-28T10:46:19.314Z,30.70
2019-02-28T10:48:50.983Z,28.60
2019-02-28T10:51:19.471Z,28.03
2019-02-28T10:53:49.363Z,28.47
2019-02-28T10:56:19.160Z,29.17
2019-02-28T10:58:50.142Z,27.77
2019-02-28T11:01:20.494Z,27.97
2019-02-28T11:03:50.428Z,26.17
2019-02-28T11:06:20.244Z,24.63
2019-02-28T11:08:50.028Z,25.40
2019-02-28T11:11:20.040Z,24.27
2019-02-28T11:13:50.900Z,24.87
2019-02-28T11:16:23.581Z,22.97
2019-02-28T11:18:52.229Z,22.57
2019-02-28T11:21:22.676Z,24.57
2019-02-28T11:23:52.894Z,22.47
2019-02-28T11:26:22.700Z,23.20
2019-02-28T11:28:52.684Z,22.43
2019-02-28T11:31:22.636Z,21.30
2019-02-28T11:33:52.450Z,23.17
2019-02-28T11:36:22.260Z,22.63
2019-02-28T11:38:52.533Z,22.60
2019-02-28T11:41:23.700Z,23.00
2019-02-28T11:43:53.504Z,22.37
2019-02-28T11:46:23.382Z,21.93
2019-02-28T11:48:54.084Z,22.80
2019-02-28T11:51:24.680Z,21.70
2019-02-28T11:53:54.502Z,21.03
2019-02-28T11:56:25.609Z,22.10
2019-02-28T11:58:55.892Z,23.60
2019-02-28T12:01:25.678Z,22.50
2019-02-28T12:03:55.487Z,22.43
2019-02-28T12:06:26.380Z,22.43
2019-02-28T12:08:56.223Z,22.20
2019-02-28T12:11:26.023Z,23.20
2019-02-28T12:13:56.097Z,23.97
2019-02-28T12:16:26.024Z,21.93
2019-02-28T12:18:55.825Z,25.13
2019-02-28T12:21:25.626Z,22.97
2019-02-28T12:23:57.293Z,24.83
2019-02-28T12:26:26.931Z,22.47
2019-02-28T12:28:56.754Z,23.93
2019-02-28T12:31:27.640Z,23.77
2019-02-28T12:33:57.714Z,24.83
2019-02-28T12:36:27.742Z,26.67
2019-02-28T12:38:59.446Z,26.43
2019-02-28T12:41:29.095Z,28.37
2019-02-28T12:43:58.891Z,30.47
2019-02-28T12:46:31.792Z,29.70
2019-02-28T12:49:00.859Z,34.53
2019-02-28T12:51:30.736Z,32.43
2019-02-28T12:54:00.532Z,40.57
2019-02-28T12:56:30.343Z,36.47
2019-02-28T12:59:00.151Z,40.47
2019-02-28T13:01:33.155Z,39.90
2019-02-28T13:04:01.567Z,45.40
2019-02-28T13:06:31.429Z,41.87
2019-02-28T13:09:01.293Z,43.10
2019-02-28T13:11:35.894Z,43.27
2019-02-28T13:14:06.481Z,41.27
2019-02-28T13:16:36.009Z,40.47
2019-02-28T13:19:06.156Z,38.20
2019-02-28T13:21:35.941Z,35.70
2019-02-28T13:24:09.852Z,32.93
2019-02-28T13:26:38.311Z,33.93
2019-02-28T13:29:10.030Z,30.87
2019-02-28T13:31:39.688Z,27.63
2019-02-28T13:34:09.589Z,28.10
2019-02-28T13:36:39.371Z,29.07
2019-02-28T13:39:09.331Z,28.67
2019-02-28T13:41:39.215Z,27.50
2019-02-28T13:44:09.387Z,29.03
2019-02-28T13:46:39.249Z,30.00
2019-02-28T13:49:12.112Z,28.13
2019-02-28T13:51:42.217Z,28.60
2019-02-28T13:54:12.035Z,27.07
2019-02-28T13:56:41.837Z,26.97
2019-02-28T13:59:12.697Z,24.70
2019-02-28T14:01:42.506Z,24.80
2019-02-28T14:04:13.378Z,24.23
2019-02-28T14:06:43.171Z,23.07
2019-02-28T14:09:13.047Z,23.37
2019-02-28T14:11:45.073Z,20.53
2019-02-28T14:14:14.361Z,21.83
2019-02-28T14:16:44.154Z,22.50
2019-02-28T14:19:16.829Z,21.60
2019-02-28T14:21:45.503Z,19.97
2019-02-28T14:24:15.339Z,21.70
2019-02-28T14:26:46.618Z,21.20
2019-02-28T14:29:16.797Z,20.30
2019-02-28T14:31:46.576Z,21.57
2019-02-28T14:34:16.447Z,20.90
2019-02-28T14:36:46.255Z,22.67
2019-02-28T14:39:16.031Z,19.63
2019-02-28T14:41:45.907Z,20.10
2019-02-28T14:44:15.708Z,20.00
2019-02-28T14:46:45.529Z,22.13
2019-02-28T14:49:16.301Z,21.23
2019-02-28T14:51:46.497Z,19.57
2019-02-28T14:54:16.283Z,17.70
2019-02-28T14:56:46.089Z,18.97
2019-02-28T14:59:15.953Z,19.10
2019-02-28T15:01:45.822Z,16.13
2019-02-28T15:04:15.620Z,15.73
2019-02-28T15:06:47.242Z,14.20
2019-02-28T15:09:17.099Z,13.60
2019-02-28T15:11:48.213Z,13.27
2019-02-28T15:14:18.171Z,12.63
2019-02-28T15:16:47.964Z,12.77
2019-02-28T15:19:17.786Z,12.70
2019-02-28T15:21:47.651Z,12.20
2019-02-28T15:24:17.443Z,11.13
2019-02-28T15:26:47.253Z,11.77
2019-02-28T15:29:17.035Z,11.53
2019-02-28T15:31:46.847Z,12.40
2019-02-28T15:34:16.657Z,11.27
2019-02-28T15:36:46.458Z,11.07
2019-02-28T15:39:17.050Z,10.27
2019-02-28T15:41:47.731Z,9.67
2019-02-28T15:44:17.544Z,10.60
2019-02-28T15:46:48.242Z,10.23
2019-02-28T15:49:18.201Z,11.97
2019-02-28T15:51:47.999Z,10.73
2019-02-28T15:54:17.945Z,9.30
2019-02-28T15:56:47.755Z,8.83
2019-02-28T15:59:17.623Z,8.37
2019-02-28T16:01:47.419Z,9.10
2019-02-28T16:04:17.195Z,8.63
2019-02-28T16:06:47.015Z,8.90
2019-02-28T16:09:18.795Z,9.47
2019-02-28T16:11:48.842Z,9.97
2019-02-28T16:14:18.621Z,8.70
2019-02-28T16:16:48.420Z,9.93
2019-02-28T16:19:18.865Z,11.60
2019-02-28T16:21:50.649Z,11.43
2019-02-28T16:24:20.456Z,9.80
2019-02-28T16:26:53.355Z,8.30
2019-02-28T16:29:21.824Z,8.70
2019-02-28T16:31:51.605Z,9.33
2019-02-28T16:34:21.413Z,8.27
2019-02-28T16:36:51.187Z,8.30
2019-02-28T16:39:20.983Z,7.97
2019-02-28T16:41:50.787Z,8.70
2019-02-28T16:44:20.644Z,8.37
2019-02-28T16:46:51.424Z,7.60
2019-02-28T16:49:21.207Z,7.33
2019-02-28T16:51:51.003Z,8.03
2019-02-28T16:54:22.470Z,7.07
2019-02-28T16:56:52.304Z,8.50
2019-02-28T16:59:22.094Z,7.77
2019-02-28T17:01:54.837Z,7.00
2019-02-28T17:04:23.399Z,8.37
2019-02-28T17:06:53.187Z,7.73
2019-02-28T17:09:26.679Z,8.87
2019-02-28T17:11:57.768Z,8.17
2019-02-28T17:14:27.571Z,8.30
2019-02-28T17:17:01.950Z,8.53
2019-02-28T17:19:32.410Z,9.67
2019-02-28T17:22:02.391Z,9.83
2019-02-28T17:24:32.192Z,9.13
2019-02-28T17:27:06.362Z,8.87
2019-02-28T17:29:36.791Z,8.50
2019-02-28T17:32:06.647Z,9.37
2019-02-28T17:34:36.447Z,9.83
2019-02-28T17:37:06.241Z,9.43
2019-02-28T17:39:36.023Z,9.60
2019-02-28T17:42:08.851Z,9.23
2019-02-28T17:44:43.928Z,8.47
2019-02-28T17:47:22.857Z,9.73
2019-02-28T17:50:15.253Z,9.30
2019-02-28T17:53:03.342Z,9.27
2019-02-28T17:55:54.008Z,9.43
2019-02-28T17:58:35.338Z,10.10
2019-02-28T18:01:37.011Z,11.60
2019-02-28T18:04:12.679Z,8.23
2019-02-28T18:07:23.728Z,8.70
2019-02-28T18:10:01.631Z,7.90
2019-02-28T18:12:52.863Z,8.70
2019-02-28T18:15:25.742Z,7.50
2019-02-28T18:18:08.774Z,8.00
2019-02-28T18:21:04.731Z,10.47
2019-02-28T18:23:41.537Z,8.43
2019-02-28T18:26:16.868Z,10.03
2019-02-28T18:29:04.669Z,9.33
2019-02-28T18:31:34.460Z,10.60
2019-02-28T18:34:04.409Z,9.70
2019-02-28T18:36:34.333Z,9.77
2019-02-28T18:39:08.111Z,9.90
2019-02-28T18:41:38.910Z,10.27
2019-02-28T18:44:09.313Z,10.03
2019-02-28T18:46:39.103Z,9.10
2019-02-28T18:49:08.920Z,9.63
2019-02-28T18:51:38.712Z,10.13
2019-02-28T18:54:08.682Z,9.70
2019-02-28T18:56:38.463Z,10.20
2019-02-28T18:59:08.356Z,9.10
2019-02-28T19:01:38.135Z,9.03
2019-02-28T19:04:07.948Z,8.70
2019-02-28T19:06:37.751Z,8.13
2019-02-28T19:09:19.022Z,8.13
2019-02-28T19:11:49.363Z,8.87
2019-02-28T19:14:19.263Z,9.00
2019-02-28T19:16:50.123Z,8.10
2019-02-28T19:19:19.951Z,10.53
2019-02-28T19:21:49.731Z,8.57
2019-02-28T19:24:19.531Z,10.40
2019-02-28T19:26:49.333Z,10.93
2019-02-28T19:29:19.191Z,11.53
2019-02-28T19:31:49.056Z,10.27
2019-02-28T19:34:18.856Z,10.57
2019-02-28T19:36:48.650Z,11.23
2019-02-28T19:39:18.461Z,11.73
2019-02-28T19:41:48.346Z,12.13
2019-02-28T19:44:18.148Z,10.70
2019-02-28T19:46:47.948Z,11.00
2019-02-28T19:49:17.753Z,12.37
2019-02-28T19:51:47.553Z,10.17
2019-02-28T19:54:17.353Z,12.30
2019-02-28T19:56:47.180Z,11.80
2019-02-28T19:59:16.993Z,11.93
2019-02-28T20:01:46.865Z,11.50
2019-02-28T20:04:17.809Z,11.60
2019-02-28T20:06:47.616Z,13.47
2019-02-28T20:09:17.487Z,14.47
2019-02-28T20:11:47.382Z,15.53
2019-02-28T20:14:17.197Z,15.20
2019-02-28T20:16:47.164Z,16.63
2019-02-28T20:19:16.951Z,17.17
2019-02-28T20:21:46.816Z,16.67
2019-02-28T20:24:16.679Z,16.87
2019-02-28T20:26:46.551Z,14.87
2019-02-28T20:29:16.421Z,14.50
2019-02-28T20:31:46.210Z,16.37
2019-02-28T20:34:16.010Z,15.60
2019-02-28T20:36:45.799Z,17.20
2019-02-28T20:39:15.740Z,17.13
2019-02-28T20:41:45.612Z,15.80
2019-02-28T20:44:15.411Z,14.07
2019-02-28T20:46:45.271Z,13.87
2019-02-28T20:49:15.083Z,13.90
2019-02-28T20:51:54.572Z,15.27
2019-02-28T20:54:16.470Z,14.73
2019-02-28T20:56:46.355Z,12.83
2019-02-28T20:59:16.165Z,13.80
2019-02-28T21:01:45.955Z,13.03
2019-02-28T21:04:15.769Z,12.00
2019-02-28T21:06:45.563Z,10.60
2019-02-28T21:09:16.905Z,11.60
2019-02-28T21:11:46.860Z,11.33
2019-02-28T21:14:16.669Z,11.67
2019-02-28T21:16:46.552Z,11.40
2019-02-28T21:19:16.385Z,10.40
2019-02-28T21:21:51.533Z,9.90
2019-02-28T21:24:21.410Z,10.43
2019-02-28T21:26:51.197Z,9.70
2019-02-28T21:29:20.999Z,8.80
2019-02-28T21:31:50.789Z,9.03
2019-02-28T21:34:20.655Z,8.90
2019-02-28T21:36:50.454Z,8.37
2019-02-28T21:39:20.316Z,9.20
2019-02-28T21:41:51.713Z,8.47
2019-02-28T21:44:21.564Z,7.43
2019-02-28T21:46:51.441Z,9.07
2019-02-28T21:49:21.228Z,9.00
2019-02-28T21:51:51.061Z,8.50
2019-02-28T21:54:20.907Z,8.70
2019-02-28T21:56:50.699Z,8.27
2019-02-28T21:59:20.495Z,8.00
2019-02-28T22:01:50.303Z,8.27
2019-02-28T22:04:20.076Z,7.50
2019-02-28T22:06:49.867Z,6.60
2019-02-28T22:09:19.647Z,7.37
2019-02-28T22:11:49.455Z,7.00
2019-02-28T22:14:19.242Z,5.83
2019-02-28T22:16:49.104Z,6.57
2019-02-28T22:19:18.887Z,5.50
2019-02-28T22:21:48.700Z,6.97
2019-02-28T22:24:18.492Z,6.60
2019-02-28T22:26:48.287Z,6.80
2019-02-28T22:29:18.647Z,6.03
2019-02-28T22:31:50.105Z,6.93
2019-02-28T22:34:21.527Z,6.30
2019-02-28T22:36:51.343Z,5.77
2019-02-28T22:39:21.124Z,6.30
2019-02-28T22:41:50.939Z,6.83
2019-02-28T22:44:20.735Z,6.63
2019-02-28T22:46:50.535Z,5.70
2019-02-28T22:49:20.332Z,5.27
2019-02-28T22:51:56.287Z,4.93
2019-02-28T22:54:26.067Z,6.13
2019-02-28T22:56:55.863Z,5.30
2019-02-28T22:59:25.683Z,4.77
2019-02-28T23:01:55.843Z,5.03
2019-02-28T23:04:25.631Z,4.77
2019-02-28T23:06:55.419Z,5.80
2019-02-28T23:09:25.211Z,5.60
2019-02-28T23:11:55.003Z,5.67
2019-02-28T23:14:24.811Z,6.10
2019-02-28T23:16:54.591Z,5.00
2019-02-28T23:19:24.379Z,4.80
2019-02-28T23:21:54.167Z,3.53
2019-02-28T23:24:23.955Z,4.20
2019-02-28T23:27:10.941Z,4.13
2019-02-28T23:29:43.973Z,4.13
2019-02-28T23:32:22.820Z,3.60
2019-02-28T23:34:52.643Z,3.83
2019-02-28T23:37:22.424Z,2.93
2019-02-28T23:39:52.215Z,3.60
2019-02-28T23:42:22.011Z,3.17
2019-02-28T23:44:51.804Z,3.67
2019-02-28T23:47:21.583Z,3.80
2019-02-28T23:49:51.367Z,3.47
2019-02-28T23:52:21.159Z,3.47
2019-02-28T23:54:50.943Z,4.30
2019-02-28T23:57:20.732Z,4.00
2019-02-28T23:59:50.535Z,4.00
